sensor_id;sensor_type;location;lat;lon;timestamp;pressure;altitude;pressure_sealevel;temperature;humidity
35443;BME280;21561;55.654;37.592;2023-03-20T00:02:18;99848.00;;;-0.97;79.83
35443;BME280;21561;55.654;37.592;2023-03-20T00:04:46;99845.75;;;-0.89;79.48
35443;BME280;21561;55.654;37.592;2023-03-20T00:07:13;99855.69;;;-0.95;79.24
35443;BME280;21561;55.654;37.592;2023-03-20T00:09:39;99857.09;;;-0.82;79.42
35443;BME280;21561;55.654;37.592;2023-03-20T00:12:13;99855.47;;;-0.80;79.76
35443;BME280;21561;55.654;37.592;2023-03-20T00:14:41;99856.81;;;-0.88;80.37
35443;BME280;21561;55.654;37.592;2023-03-20T00:17:10;99851.09;;;-0.83;79.94
35443;BME280;21561;55.654;37.592;2023-03-20T00:19:43;99843.50;;;-0.81;78.90
35443;BME280;21561;55.654;37.592;2023-03-20T00:22:10;99848.59;;;-0.81;79.61
35443;BME280;21561;55.654;37.592;2023-03-20T00:24:37;99843.13;;;-0.90;79.36
35443;BME280;21561;55.654;37.592;2023-03-20T00:27:04;99847.47;;;-1.09;79.48
35443;BME280;21561;55.654;37.592;2023-03-20T00:29:31;99844.31;;;-1.23;80.08
35443;BME280;21561;55.654;37.592;2023-03-20T00:31:59;99839.81;;;-1.09;81.56
35443;BME280;21561;55.654;37.592;2023-03-20T00:34:27;99834.88;;;-0.85;79.71
35443;BME280;21561;55.654;37.592;2023-03-20T00:36:55;99838.78;;;-0.72;78.80
35443;BME280;21561;55.654;37.592;2023-03-20T00:39:23;99828.69;;;-0.49;77.33
35443;BME280;21561;55.654;37.592;2023-03-20T00:41:56;99830.09;;;-0.56;77.40
35443;BME280;21561;55.654;37.592;2023-03-20T00:44:33;99840.19;;;-0.80;78.10
35443;BME280;21561;55.654;37.592;2023-03-20T00:47:27;99837.28;;;-1.09;79.24
35443;BME280;21561;55.654;37.592;2023-03-20T00:49:56;99841.28;;;-1.53;81.22
35443;BME280;21561;55.654;37.592;2023-03-20T00:52:24;99839.56;;;-1.74;82.46
35443;BME280;21561;55.654;37.592;2023-03-20T00:54:50;99835.50;;;-1.88;83.59
35443;BME280;21561;55.654;37.592;2023-03-20T00:57:29;99830.28;;;-1.91;84.41
35443;BME280;21561;55.654;37.592;2023-03-20T01:02:54;99832.50;;;-2.17;86.00
35443;BME280;21561;55.654;37.592;2023-03-20T01:05:24;99831.31;;;-2.23;86.50
35443;BME280;21561;55.654;37.592;2023-03-20T01:07:51;99829.94;;;-1.61;83.50
35443;BME280;21561;55.654;37.592;2023-03-20T01:10:18;99822.13;;;-1.06;79.94
35443;BME280;21561;55.654;37.592;2023-03-20T01:12:45;99826.88;;;-0.73;78.30
35443;BME280;21561;55.654;37.592;2023-03-20T01:15:20;99817.69;;;-0.48;74.58
35443;BME280;21561;55.654;37.592;2023-03-20T01:17:48;99832.22;;;-0.25;77.26
35443;BME280;21561;55.654;37.592;2023-03-20T01:20:27;99813.66;;;-0.21;72.49
35443;BME280;21561;55.654;37.592;2023-03-20T01:22:54;99820.13;;;-0.29;74.64
35443;BME280;21561;55.654;37.592;2023-03-20T01:25:21;99824.94;;;-0.58;75.94
35443;BME280;21561;55.654;37.592;2023-03-20T01:27:50;99814.22;;;-0.71;75.85
35443;BME280;21561;55.654;37.592;2023-03-20T01:30:21;99812.69;;;-0.45;73.62
35443;BME280;21561;55.654;37.592;2023-03-20T01:32:49;99800.31;;;-0.13;71.47
35443;BME280;21561;55.654;37.592;2023-03-20T01:35:20;99812.22;;;-0.14;73.45
35443;BME280;21561;55.654;37.592;2023-03-20T01:37:47;99806.38;;;-0.55;74.61
35443;BME280;21561;55.654;37.592;2023-03-20T01:40:32;99768.19;;;-0.53;66.72
35443;BME280;21561;55.654;37.592;2023-03-20T01:43:01;99773.13;;;-0.35;66.85
35443;BME280;21561;55.654;37.592;2023-03-20T01:45:33;99757.53;;;-0.21;64.62
35443;BME280;21561;55.654;37.592;2023-03-20T01:48:13;99718.56;;;-0.16;61.84
35443;BME280;21561;55.654;37.592;2023-03-20T01:50:40;99712.09;;;-0.08;61.25
35443;BME280;21561;55.654;37.592;2023-03-20T01:55:46;99669.00;;;0.24;58.38
35443;BME280;21561;55.654;37.592;2023-03-20T01:58:19;99584.16;;;0.31;55.68
35443;BME280;21561;55.654;37.592;2023-03-20T02:00:47;99621.31;;;0.23;57.62
35443;BME280;21561;55.654;37.592;2023-03-20T02:03:15;99675.34;;;0.35;58.10
35443;BME280;21561;55.654;37.592;2023-03-20T02:05:44;99539.19;;;0.34;52.89
35443;BME280;21561;55.654;37.592;2023-03-20T02:10:45;99507.59;;;0.31;52.73
35443;BME280;21561;55.654;37.592;2023-03-20T02:13:12;99573.06;;;0.30;53.63
35443;BME280;21561;55.654;37.592;2023-03-20T02:16:02;99597.28;;;0.42;54.14
35443;BME280;21561;55.654;37.592;2023-03-20T02:18:29;99606.72;;;0.44;54.46
35443;BME280;21561;55.654;37.592;2023-03-20T02:25:05;99665.13;;;0.61;56.14
35443;BME280;21561;55.654;37.592;2023-03-20T02:27:43;99588.09;;;0.74;54.02
35443;BME280;21561;55.654;37.592;2023-03-20T02:30:22;99593.53;;;0.85;54.94
35443;BME280;21561;55.654;37.592;2023-03-20T02:33:02;99616.13;;;1.00;53.84
35443;BME280;21561;55.654;37.592;2023-03-20T02:38:53;99739.75;;;0.78;58.76
35443;BME280;21561;55.654;37.592;2023-03-20T02:41:31;99843.56;;;0.51;62.46
35443;BME280;21561;55.654;37.592;2023-03-20T02:49:47;99855.66;;;-1.16;71.03
35443;BME280;21561;55.654;37.592;2023-03-20T02:54:58;99774.06;;;-1.58;73.37
35443;BME280;21561;55.654;37.592;2023-03-20T03:00:49;99771.78;;;-1.71;74.31
35443;BME280;21561;55.654;37.592;2023-03-20T03:03:26;99767.56;;;-1.71;75.67
35443;BME280;21561;55.654;37.592;2023-03-20T03:06:27;99765.00;;;-1.90;77.09
35443;BME280;21561;55.654;37.592;2023-03-20T03:09:18;99762.38;;;-2.12;78.92
35443;BME280;21561;55.654;37.592;2023-03-20T03:11:55;99756.59;;;-2.27;80.13
35443;BME280;21561;55.654;37.592;2023-03-20T03:14:46;99764.66;;;-2.36;79.57
35443;BME280;21561;55.654;37.592;2023-03-20T03:17:15;99758.50;;;-2.59;81.30
35443;BME280;21561;55.654;37.592;2023-03-20T03:19:48;99763.00;;;-2.53;78.12
35443;BME280;21561;55.654;37.592;2023-03-20T03:22:15;99759.09;;;-2.09;78.52
35443;BME280;21561;55.654;37.592;2023-03-20T03:24:47;99740.56;;;-1.48;73.29
35443;BME280;21561;55.654;37.592;2023-03-20T03:29:57;99739.66;;;-0.43;70.78
35443;BME280;21561;55.654;37.592;2023-03-20T03:32:50;99716.59;;;-0.01;68.66
35443;BME280;21561;55.654;37.592;2023-03-20T03:35:18;99731.41;;;-0.37;68.60
35443;BME280;21561;55.654;37.592;2023-03-20T03:40:44;99748.75;;;-1.55;71.91
35443;BME280;21561;55.654;37.592;2023-03-20T03:43:16;99746.06;;;-1.78;73.43
35443;BME280;21561;55.654;37.592;2023-03-20T03:45:57;99748.75;;;-1.94;74.51
35443;BME280;21561;55.654;37.592;2023-03-20T03:48:31;99750.06;;;-2.22;75.64
35443;BME280;21561;55.654;37.592;2023-03-20T03:51:13;99745.19;;;-2.35;76.45
35443;BME280;21561;55.654;37.592;2023-03-20T03:53:46;99736.22;;;-2.46;76.68
35443;BME280;21561;55.654;37.592;2023-03-20T03:56:19;99729.94;;;-2.35;76.70
35443;BME280;21561;55.654;37.592;2023-03-20T03:58:53;99729.59;;;-2.05;74.04
35443;BME280;21561;55.654;37.592;2023-03-20T04:01:22;99723.13;;;-1.79;71.98
35443;BME280;21561;55.654;37.592;2023-03-20T04:03:56;99719.69;;;-1.60;70.74
35443;BME280;21561;55.654;37.592;2023-03-20T04:06:26;99711.31;;;-1.58;70.01
35443;BME280;21561;55.654;37.592;2023-03-20T04:08:53;99717.25;;;-1.38;69.55
35443;BME280;21561;55.654;37.592;2023-03-20T04:11:22;99711.06;;;-1.23;69.14
35443;BME280;21561;55.654;37.592;2023-03-20T04:13:51;99707.09;;;-1.17;68.20
35443;BME280;21561;55.654;37.592;2023-03-20T04:16:20;99705.22;;;-1.00;67.64
35443;BME280;21561;55.654;37.592;2023-03-20T04:18:47;99706.97;;;-0.99;67.86
35443;BME280;21561;55.654;37.592;2023-03-20T04:21:14;99702.84;;;-0.95;66.96
35443;BME280;21561;55.654;37.592;2023-03-20T04:23:42;99701.31;;;-0.91;66.82
35443;BME280;21561;55.654;37.592;2023-03-20T04:26:09;99702.16;;;-0.91;66.82
35443;BME280;21561;55.654;37.592;2023-03-20T04:28:36;99710.94;;;-0.62;68.85
35443;BME280;21561;55.654;37.592;2023-03-20T04:31:03;99698.50;;;-0.07;67.98
35443;BME280;21561;55.654;37.592;2023-03-20T04:33:30;99673.81;;;0.40;64.72
35443;BME280;21561;55.654;37.592;2023-03-20T04:35:57;99639.22;;;0.75;62.09
35443;BME280;21561;55.654;37.592;2023-03-20T04:38:24;99623.84;;;0.48;61.41
35443;BME280;21561;55.654;37.592;2023-03-20T04:40:51;99660.06;;;0.12;62.63
35443;BME280;21561;55.654;37.592;2023-03-20T04:43:18;99709.22;;;-0.17;64.14
35443;BME280;21561;55.654;37.592;2023-03-20T04:45:45;99727.13;;;-0.39;65.90
35443;BME280;21561;55.654;37.592;2023-03-20T04:48:12;99714.09;;;-0.46;65.70
35443;BME280;21561;55.654;37.592;2023-03-20T04:50:39;99719.06;;;-0.49;67.19
35443;BME280;21561;55.654;37.592;2023-03-20T04:53:06;99721.16;;;-0.39;67.62
35443;BME280;21561;55.654;37.592;2023-03-20T04:55:32;99695.88;;;-0.33;66.10
35443;BME280;21561;55.654;37.592;2023-03-20T04:58:00;99695.00;;;-0.33;65.50
35443;BME280;21561;55.654;37.592;2023-03-20T05:00:26;99698.38;;;-0.34;65.57
35443;BME280;21561;55.654;37.592;2023-03-20T05:02:53;99690.78;;;-0.33;64.97
35443;BME280;21561;55.654;37.592;2023-03-20T05:05:20;99683.00;;;-0.13;64.56
35443;BME280;21561;55.654;37.592;2023-03-20T05:07:49;99666.63;;;0.04;62.86
35443;BME280;21561;55.654;37.592;2023-03-20T05:10:17;99641.84;;;0.26;61.52
35443;BME280;21561;55.654;37.592;2023-03-20T05:12:44;99615.28;;;0.46;59.55
35443;BME280;21561;55.654;37.592;2023-03-20T05:15:12;99636.22;;;0.62;60.18
35443;BME280;21561;55.654;37.592;2023-03-20T05:17:39;99628.69;;;0.66;60.02
35443;BME280;21561;55.654;37.592;2023-03-20T05:20:06;99636.41;;;0.68;60.40
35443;BME280;21561;55.654;37.592;2023-03-20T05:22:33;99634.06;;;0.74;60.02
35443;BME280;21561;55.654;37.592;2023-03-20T05:25:00;99612.91;;;0.78;58.50
35443;BME280;21561;55.654;37.592;2023-03-20T05:27:28;99614.03;;;0.88;58.46
35443;BME280;21561;55.654;37.592;2023-03-20T05:29:55;99586.25;;;0.97;56.71
35443;BME280;21561;55.654;37.592;2023-03-20T05:32:22;99554.06;;;1.04;56.04
35443;BME280;21561;55.654;37.592;2023-03-20T05:34:48;99518.75;;;1.19;54.40
35443;BME280;21561;55.654;37.592;2023-03-20T05:37:16;99529.16;;;1.27;54.49
35443;BME280;21561;55.654;37.592;2023-03-20T05:39:43;99508.69;;;1.25;53.71
35443;BME280;21561;55.654;37.592;2023-03-20T05:42:10;99505.31;;;1.26;53.47
35443;BME280;21561;55.654;37.592;2023-03-20T05:44:36;99510.41;;;1.26;52.72
35443;BME280;21561;55.654;37.592;2023-03-20T05:47:03;99474.72;;;1.29;52.22
35443;BME280;21561;55.654;37.592;2023-03-20T05:49:31;99482.50;;;1.34;51.96
35443;BME280;21561;55.654;37.592;2023-03-20T05:51:58;99476.81;;;1.44;51.37
35443;BME280;21561;55.654;37.592;2023-03-20T05:54:25;99427.63;;;1.53;50.05
35443;BME280;21561;55.654;37.592;2023-03-20T05:56:51;99372.34;;;1.58;49.36
35443;BME280;21561;55.654;37.592;2023-03-20T05:59:18;99380.97;;;1.63;49.46
35443;BME280;21561;55.654;37.592;2023-03-20T06:01:45;99399.81;;;1.67;49.34
35443;BME280;21561;55.654;37.592;2023-03-20T06:04:12;99428.16;;;1.75;50.25
35443;BME280;21561;55.654;37.592;2023-03-20T06:06:39;99423.25;;;1.84;48.90
35443;BME280;21561;55.654;37.592;2023-03-20T06:09:07;99442.28;;;1.95;49.45
35443;BME280;21561;55.654;37.592;2023-03-20T06:11:34;99430.63;;;2.06;49.13
35443;BME280;21561;55.654;37.592;2023-03-20T06:14:03;99361.63;;;2.11;46.83
35443;BME280;21561;55.654;37.592;2023-03-20T06:16:30;99254.19;;;2.14;45.70
35443;BME280;21561;55.654;37.592;2023-03-20T06:18:56;99267.97;;;2.21;45.92
35443;BME280;21561;55.654;37.592;2023-03-20T06:21:23;99275.88;;;2.33;44.76
35443;BME280;21561;55.654;37.592;2023-03-20T06:23:50;99216.25;;;2.40;44.41
35443;BME280;21561;55.654;37.592;2023-03-20T06:26:17;99206.16;;;2.46;44.72
35443;BME280;21561;55.654;37.592;2023-03-20T06:28:44;99247.31;;;2.56;44.94
35443;BME280;21561;55.654;37.592;2023-03-20T06:31:11;99213.28;;;2.63;44.19
35443;BME280;21561;55.654;37.592;2023-03-20T06:33:38;99231.31;;;2.67;44.77
35443;BME280;21561;55.654;37.592;2023-03-20T06:36:05;99202.38;;;2.73;43.66
35443;BME280;21561;55.654;37.592;2023-03-20T06:38:32;99126.31;;;2.72;42.74
35443;BME280;21561;55.654;37.592;2023-03-20T06:40:59;99133.22;;;2.76;42.67
35443;BME280;21561;55.654;37.592;2023-03-20T06:43:26;99092.22;;;2.76;42.09
35443;BME280;21561;55.654;37.592;2023-03-20T06:45:53;99093.91;;;2.74;42.92
35443;BME280;21561;55.654;37.592;2023-03-20T06:48:20;99133.13;;;2.70;43.59
35443;BME280;21561;55.654;37.592;2023-03-20T06:50:48;99186.03;;;2.68;44.54
35443;BME280;21561;55.654;37.592;2023-03-20T06:53:16;99227.09;;;2.71;45.11
35443;BME280;21561;55.654;37.592;2023-03-20T06:55:46;99273.41;;;2.83;45.37
35443;BME280;21561;55.654;37.592;2023-03-20T06:58:13;99296.50;;;2.85;45.76
35443;BME280;21561;55.654;37.592;2023-03-20T07:00:41;99288.84;;;2.86;45.55
35443;BME280;21561;55.654;37.592;2023-03-20T07:03:08;99288.84;;;2.86;45.49
35443;BME280;21561;55.654;37.592;2023-03-20T07:05:36;99290.59;;;2.88;46.06
35443;BME280;21561;55.654;37.592;2023-03-20T07:08:04;99314.63;;;2.96;46.31
35443;BME280;21561;55.654;37.592;2023-03-20T07:10:33;99307.81;;;2.95;46.00
35443;BME280;21561;55.654;37.592;2023-03-20T07:13:00;99295.81;;;2.94;45.78
35443;BME280;21561;55.654;37.592;2023-03-20T07:15:27;99264.22;;;2.95;44.08
35443;BME280;21561;55.654;37.592;2023-03-20T07:17:55;99243.81;;;3.01;44.25
35443;BME280;21561;55.654;37.592;2023-03-20T07:20:22;99239.59;;;3.04;44.28
35443;BME280;21561;55.654;37.592;2023-03-20T07:22:49;99231.13;;;3.07;44.21
35443;BME280;21561;55.654;37.592;2023-03-20T07:25:17;99232.78;;;3.03;44.06
35443;BME280;21561;55.654;37.592;2023-03-20T07:27:51;99236.91;;;2.95;44.03
35443;BME280;21561;55.654;37.592;2023-03-20T07:30:18;99183.84;;;2.90;43.91
35443;BME280;21561;55.654;37.592;2023-03-20T07:32:45;99209.59;;;2.97;44.16
35443;BME280;21561;55.654;37.592;2023-03-20T07:35:12;99225.94;;;3.04;43.71
35443;BME280;21561;55.654;37.592;2023-03-20T07:37:39;99161.75;;;2.96;42.97
35443;BME280;21561;55.654;37.592;2023-03-20T07:40:07;99192.44;;;2.93;43.98
35443;BME280;21561;55.654;37.592;2023-03-20T07:42:34;99243.69;;;2.93;44.64
35443;BME280;21561;55.654;37.592;2023-03-20T07:45:01;99250.56;;;2.96;44.42
35443;BME280;21561;55.654;37.592;2023-03-20T07:47:29;99222.38;;;2.96;43.88
35443;BME280;21561;55.654;37.592;2023-03-20T07:49:55;99199.38;;;2.99;43.29
35443;BME280;21561;55.654;37.592;2023-03-20T07:52:22;99177.94;;;2.95;43.13
35443;BME280;21561;55.654;37.592;2023-03-20T07:54:49;99162.53;;;2.94;43.47
35443;BME280;21561;55.654;37.592;2023-03-20T07:57:16;99142.88;;;2.93;43.08
35443;BME280;21561;55.654;37.592;2023-03-20T07:59:43;99142.75;;;2.85;42.86
35443;BME280;21561;55.654;37.592;2023-03-20T08:02:14;99158.09;;;2.83;42.93
35443;BME280;21561;55.654;37.592;2023-03-20T08:04:42;99170.00;;;2.80;43.25
35443;BME280;21561;55.654;37.592;2023-03-20T08:07:10;99171.72;;;2.81;42.56
35443;BME280;21561;55.654;37.592;2023-03-20T08:09:37;99160.72;;;2.86;42.93
35443;BME280;21561;55.654;37.592;2023-03-20T08:12:04;99124.91;;;2.90;42.50
35443;BME280;21561;55.654;37.592;2023-03-20T08:14:31;99130.94;;;2.93;42.89
35443;BME280;21561;55.654;37.592;2023-03-20T08:16:58;99162.66;;;3.00;43.11
35443;BME280;21561;55.654;37.592;2023-03-20T08:19:40;99162.78;;;3.09;43.08
35443;BME280;21561;55.654;37.592;2023-03-20T08:22:07;99154.28;;;3.13;42.70
35443;BME280;21561;55.654;37.592;2023-03-20T08:24:34;99101.34;;;3.15;41.61
35443;BME280;21561;55.654;37.592;2023-03-20T08:27:01;99116.78;;;3.18;41.87
35443;BME280;21561;55.654;37.592;2023-03-20T08:29:28;99065.50;;;3.18;41.08
35443;BME280;21561;55.654;37.592;2023-03-20T08:31:55;99053.56;;;3.20;41.36
35443;BME280;21561;55.654;37.592;2023-03-20T08:34:23;99017.69;;;3.23;39.59
35443;BME280;21561;55.654;37.592;2023-03-20T08:36:50;98980.16;;;3.29;39.29
35443;BME280;21561;55.654;37.592;2023-03-20T08:39:18;98963.19;;;3.40;39.15
35443;BME280;21561;55.654;37.592;2023-03-20T08:41:44;98917.06;;;3.48;38.24
35443;BME280;21561;55.654;37.592;2023-03-20T08:44:12;98889.81;;;3.57;38.60
35443;BME280;21561;55.654;37.592;2023-03-20T08:46:38;98855.69;;;3.65;37.81
35443;BME280;21561;55.654;37.592;2023-03-20T08:49:05;98867.72;;;3.75;37.94
35443;BME280;21561;55.654;37.592;2023-03-20T08:51:32;98889.25;;;3.92;38.42
35443;BME280;21561;55.654;37.592;2023-03-20T08:53:59;98876.47;;;4.01;39.11
35443;BME280;21561;55.654;37.592;2023-03-20T08:56:26;98905.66;;;4.13;39.07
35443;BME280;21561;55.654;37.592;2023-03-20T08:58:53;98905.69;;;4.19;39.15
35443;BME280;21561;55.654;37.592;2023-03-20T09:01:22;98915.13;;;4.25;39.03
35443;BME280;21561;55.654;37.592;2023-03-20T09:03:49;98950.31;;;4.33;39.49
35443;BME280;21561;55.654;37.592;2023-03-20T09:06:16;98937.47;;;4.35;39.62
35443;BME280;21561;55.654;37.592;2023-03-20T09:08:42;98948.63;;;4.38;39.46
35443;BME280;21561;55.654;37.592;2023-03-20T09:11:09;98957.22;;;4.44;39.74
35443;BME280;21561;55.654;37.592;2023-03-20T09:13:36;98944.41;;;4.48;39.86
35443;BME280;21561;55.654;37.592;2023-03-20T09:16:03;98958.97;;;4.54;39.96
35443;BME280;21561;55.654;37.592;2023-03-20T09:18:30;98962.44;;;4.59;39.92
35443;BME280;21561;55.654;37.592;2023-03-20T09:20:57;98906.78;;;4.56;38.85
35443;BME280;21561;55.654;37.592;2023-03-20T09:23:24;98907.66;;;4.60;38.81
35443;BME280;21561;55.654;37.592;2023-03-20T09:25:51;98893.91;;;4.55;39.08
35443;BME280;21561;55.654;37.592;2023-03-20T09:28:18;98917.88;;;4.51;39.40
35443;BME280;21561;55.654;37.592;2023-03-20T09:30:46;98938.44;;;4.54;39.91
35443;BME280;21561;55.654;37.592;2023-03-20T09:33:13;98905.91;;;4.53;38.50
35443;BME280;21561;55.654;37.592;2023-03-20T09:35:40;98894.72;;;4.48;38.62
35443;BME280;21561;55.654;37.592;2023-03-20T09:38:09;98913.63;;;4.56;38.83
35443;BME280;21561;55.654;37.592;2023-03-20T09:43:42;98810.84;;;4.59;37.49
35443;BME280;21561;55.654;37.592;2023-03-20T09:49:44;98786.00;;;4.55;37.72
35443;BME280;21561;55.654;37.592;2023-03-20T09:52:19;98835.69;;;4.57;38.80
35443;BME280;21561;55.654;37.592;2023-03-20T09:54:50;98859.69;;;4.64;39.01
35443;BME280;21561;55.654;37.592;2023-03-20T09:57:39;98875.19;;;4.77;39.07
35443;BME280;21561;55.654;37.592;2023-03-20T10:00:18;98827.19;;;4.83;37.84
35443;BME280;21561;55.654;37.592;2023-03-20T10:02:51;98835.78;;;4.82;38.83
35443;BME280;21561;55.654;37.592;2023-03-20T10:05:25;98862.38;;;4.97;38.99
35443;BME280;21561;55.654;37.592;2023-03-20T10:07:57;98855.56;;;5.12;38.64
35443;BME280;21561;55.654;37.592;2023-03-20T10:10:41;98849.59;;;5.30;38.48
35443;BME280;21561;55.654;37.592;2023-03-20T10:18:39;98887.34;;;5.65;39.64
35443;BME280;21561;55.654;37.592;2023-03-20T10:21:44;98847.88;;;5.87;39.07
35443;BME280;21561;55.654;37.592;2023-03-20T10:26:46;98883.97;;;5.97;40.04
35443;BME280;21561;55.654;37.592;2023-03-20T10:32:01;98923.41;;;6.42;40.54
35443;BME280;21561;55.654;37.592;2023-03-20T10:40:38;98801.56;;;8.41;37.33
35443;BME280;21561;55.654;37.592;2023-03-20T10:45:45;98658.34;;;9.60;35.22
35443;BME280;21561;55.654;37.592;2023-03-20T10:48:25;98555.50;;;10.04;34.31
35443;BME280;21561;55.654;37.592;2023-03-20T10:50:57;98515.03;;;9.99;33.78
35443;BME280;21561;55.654;37.592;2023-03-20T10:53:31;98484.97;;;10.27;33.70
35443;BME280;21561;55.654;37.592;2023-03-20T10:56:12;98460.22;;;10.84;33.87
35443;BME280;21561;55.654;37.592;2023-03-20T10:58:46;98445.50;;;11.16;33.12
35443;BME280;21561;55.654;37.592;2023-03-20T11:01:14;98404.16;;;11.08;32.20
35443;BME280;21561;55.654;37.592;2023-03-20T11:03:41;98427.19;;;11.49;32.30
35443;BME280;21561;55.654;37.592;2023-03-20T11:06:21;98385.50;;;12.09;32.19
35443;BME280;21561;55.654;37.592;2023-03-20T11:08:51;98398.09;;;12.21;31.36
35443;BME280;21561;55.654;37.592;2023-03-20T11:11:39;98309.16;;;12.60;31.26
35443;BME280;21561;55.654;37.592;2023-03-20T11:14:20;98350.09;;;12.78;31.06
35443;BME280;21561;55.654;37.592;2023-03-20T11:16:50;98272.50;;;12.88;29.89
35443;BME280;21561;55.654;37.592;2023-03-20T11:19:19;98261.56;;;13.46;29.02
35443;BME280;21561;55.654;37.592;2023-03-20T11:21:52;98198.22;;;13.85;28.48
35443;BME280;21561;55.654;37.592;2023-03-20T11:24:40;98133.00;;;14.06;29.15
35443;BME280;21561;55.654;37.592;2023-03-20T11:27:13;98120.66;;;13.90;28.19
35443;BME280;21561;55.654;37.592;2023-03-20T11:29:42;98122.94;;;13.98;28.19
35443;BME280;21561;55.654;37.592;2023-03-20T11:34:54;98137.72;;;14.91;27.22
35443;BME280;21561;55.654;37.592;2023-03-20T11:37:27;98100.22;;;15.62;27.00
35443;BME280;21561;55.654;37.592;2023-03-20T11:40:00;98014.50;;;15.51;26.36
35443;BME280;21561;55.654;37.592;2023-03-20T11:42:30;98091.91;;;15.54;26.96
35443;BME280;21561;55.654;37.592;2023-03-20T11:45:12;98039.44;;;15.74;26.34
35443;BME280;21561;55.654;37.592;2023-03-20T11:47:41;98041.84;;;15.28;26.86
35443;BME280;21561;55.654;37.592;2023-03-20T11:50:32;98068.25;;;15.90;27.22
35443;BME280;21561;55.654;37.592;2023-03-20T11:53:02;98058.94;;;15.51;26.18
35443;BME280;21561;55.654;37.592;2023-03-20T11:55:34;98050.41;;;15.97;26.17
35443;BME280;21561;55.654;37.592;2023-03-20T11:58:02;98114.06;;;16.77;28.07
35443;BME280;21561;55.654;37.592;2023-03-20T12:00:38;98040.03;;;16.27;25.40
35443;BME280;21561;55.654;37.592;2023-03-20T12:06:15;98050.44;;;16.13;25.85
35443;BME280;21561;55.654;37.592;2023-03-20T12:09:09;98024.50;;;16.70;25.77
35443;BME280;21561;55.654;37.592;2023-03-20T12:11:52;98004.41;;;17.44;25.32
35443;BME280;21561;55.654;37.592;2023-03-20T12:14:26;97921.41;;;17.16;24.16
35443;BME280;21561;55.654;37.592;2023-03-20T12:19:56;97941.78;;;16.96;24.58
35443;BME280;21561;55.654;37.592;2023-03-20T12:22:29;97896.47;;;16.21;25.15
35443;BME280;21561;55.654;37.592;2023-03-20T12:25:07;97988.81;;;16.07;26.01
35443;BME280;21561;55.654;37.592;2023-03-20T12:27:45;98019.41;;;15.73;26.07
35443;BME280;21561;55.654;37.592;2023-03-20T12:30:25;98048.75;;;15.96;26.70
35443;BME280;21561;55.654;37.592;2023-03-20T12:33:21;98049.44;;;16.15;26.66
35443;BME280;21561;55.654;37.592;2023-03-20T12:35:53;98027.69;;;15.32;26.48
35443;BME280;21561;55.654;37.592;2023-03-20T12:38:28;98070.59;;;15.95;26.79
35443;BME280;21561;55.654;37.592;2023-03-20T12:41:15;98062.16;;;15.90;27.10
35443;BME280;21561;55.654;37.592;2023-03-20T12:46:46;98052.41;;;15.42;25.67
35443;BME280;21561;55.654;37.592;2023-03-20T12:49:35;98048.09;;;16.08;25.84
35443;BME280;21561;55.654;37.592;2023-03-20T12:55:14;98052.28;;;16.27;25.80
35443;BME280;21561;55.654;37.592;2023-03-20T13:00:33;98014.34;;;15.70;25.68
35443;BME280;21561;55.654;37.592;2023-03-20T13:04:25;98006.22;;;16.08;25.56
35443;BME280;21561;55.654;37.592;2023-03-20T13:06:27;98006.75;;;15.99;25.31
35443;BME280;21561;55.654;37.592;2023-03-20T13:12:22;97969.41;;;16.11;25.04
35443;BME280;21561;55.654;37.592;2023-03-20T13:18:39;97990.81;;;15.70;26.30
35443;BME280;21561;55.654;37.592;2023-03-20T13:20:54;98025.59;;;15.72;26.74
35443;BME280;21561;55.654;37.592;2023-03-20T13:23:40;98052.50;;;15.07;27.71
35443;BME280;21561;55.654;37.592;2023-03-20T13:31:57;98219.56;;;13.54;29.88
35443;BME280;21561;55.654;37.592;2023-03-20T13:37:39;98305.59;;;13.08;31.18
35443;BME280;21561;55.654;37.592;2023-03-20T13:40:22;98321.44;;;13.02;31.06
35443;BME280;21561;55.654;37.592;2023-03-20T13:42:56;98322.38;;;12.54;31.23
35443;BME280;21561;55.654;37.592;2023-03-20T13:48:04;98374.25;;;12.33;31.84
35443;BME280;21561;55.654;37.592;2023-03-20T14:04:27;98393.69;;;12.23;32.22
35443;BME280;21561;55.654;37.592;2023-03-20T14:06:57;98430.59;;;11.79;33.25
35443;BME280;21561;55.654;37.592;2023-03-20T14:09:35;98453.44;;;11.40;33.66
35443;BME280;21561;55.654;37.592;2023-03-20T14:12:08;98507.09;;;11.41;34.55
35443;BME280;21561;55.654;37.592;2023-03-20T14:14:46;98532.44;;;11.33;34.32
35443;BME280;21561;55.654;37.592;2023-03-20T14:17:25;98561.38;;;10.86;35.24
35443;BME280;21561;55.654;37.592;2023-03-20T14:19:53;98598.94;;;9.93;36.85
35443;BME280;21561;55.654;37.592;2023-03-20T14:22:33;98670.38;;;9.61;37.83
35443;BME280;21561;55.654;37.592;2023-03-20T14:25:06;98715.97;;;9.20;38.91
35443;BME280;21561;55.654;37.592;2023-03-20T14:27:36;98744.25;;;8.76;39.79
35443;BME280;21561;55.654;37.592;2023-03-20T14:35:35;98885.63;;;7.92;42.46
35443;BME280;21561;55.654;37.592;2023-03-20T14:38:22;98951.22;;;7.73;43.02
35443;BME280;21561;55.654;37.592;2023-03-20T14:43:22;98999.66;;;7.28;44.42
35443;BME280;21561;55.654;37.592;2023-03-20T14:46:00;99012.56;;;7.26;44.51
35443;BME280;21561;55.654;37.592;2023-03-20T14:48:39;99043.59;;;7.07;45.28
35443;BME280;21561;55.654;37.592;2023-03-20T14:56:49;99086.63;;;6.78;46.29
35443;BME280;21561;55.654;37.592;2023-03-20T14:59:18;99119.25;;;6.62;46.81
35443;BME280;21561;55.654;37.592;2023-03-20T15:09:44;99210.28;;;6.25;48.70
35443;BME280;21561;55.654;37.592;2023-03-20T15:12:14;99236.84;;;6.12;49.02
35443;BME280;21561;55.654;37.592;2023-03-20T15:14:48;99264.31;;;6.08;49.81
35443;BME280;21561;55.654;37.592;2023-03-20T15:17:20;99290.00;;;6.01;50.65
35443;BME280;21561;55.654;37.592;2023-03-20T15:19:47;99278.78;;;5.92;50.42
35443;BME280;21561;55.654;37.592;2023-03-20T15:22:19;99298.44;;;5.81;50.67
35443;BME280;21561;55.654;37.592;2023-03-20T15:24:54;99324.19;;;5.78;51.49
35443;BME280;21561;55.654;37.592;2023-03-20T15:27:24;99330.13;;;5.68;51.63